sensor_id;sensor_type;location;lat;lon;timestamp;pressure;altitude;pressure_sealevel;temperature;humidity
48636;BME280;34429;52.332;5.614;2022-08-19T00:00:40;101342.16;;;17.99;100.00
48636;BME280;34429;52.332;5.614;2022-08-19T00:03:08;101338.78;;;17.97;100.00
48636;BME280;34429;52.332;5.614;2022-08-19T00:05:39;101332.84;;;17.93;100.00
48636;BME280;34429;52.332;5.614;2022-08-19T00:08:08;101336.03;;;18.05;100.00
48636;BME280;34429;52.332;5.614;2022-08-19T00:10:36;101332.84;;;17.93;100.00
48636;BME280;34429;52.332;5.614;2022-08-19T00:13:04;101343.53;;;17.86;100.00
48636;BME280;34429;52.332;5.614;2022-08-19T00:15:32;101340.97;;;17.85;100.00
48636;BME280;34429;52.332;5.614;2022-08-19T00:18:00;101348.97;;;17.78;100.00
48636;BME280;34429;52.332;5.614;2022-08-19T00:20:28;101346.94;;;17.80;100.00
48636;BME280;34429;52.332;5.614;2022-08-19T00:22:59;101346.09;;;17.72;100.00
48636;BME280;34429;52.332;5.614;2022-08-19T00:25:29;101348.97;;;17.70;100.00
48636;BME280;34429;52.332;5.614;2022-08-19T00:27:57;101344.56;;;17.61;100.00
48636;BME280;34429;52.332;5.614;2022-08-19T00:30:25;101339.44;;;17.58;100.00
48636;BME280;34429;52.332;5.614;2022-08-19T00:32:53;101340.81;;;17.62;100.00
48636;BME280;34429;52.332;5.614;2022-08-19T00:35:22;101344.41;;;17.54;100.00
48636;BME280;34429;52.332;5.614;2022-08-19T00:37:52;101341.50;;;17.64;100.00
48636;BME280;34429;52.332;5.614;2022-08-19T00:40:23;101335.72;;;17.59;100.00
48636;BME280;34429;52.332;5.614;2022-08-19T00:42:51;101337.75;;;17.57;100.00
48636;BME280;34429;52.332;5.614;2022-08-19T00:45:22;101334.00;;;17.58;100.00
48636;BME280;34429;52.332;5.614;2022-08-19T00:47:50;101339.97;;;17.53;100.00
48636;BME280;34429;52.332;5.614;2022-08-19T00:50:18;101338.94;;;17.54;100.00
48636;BME280;34429;52.332;5.614;2022-08-19T00:52:49;101322.78;;;17.44;100.00
48636;BME280;34429;52.332;5.614;2022-08-19T00:55:18;101328.94;;;17.46;100.00
48636;BME280;34429;52.332;5.614;2022-08-19T00:57:51;101329.28;;;17.43;100.00
48636;BME280;34429;52.332;5.614;2022-08-19T01:00:21;101331.66;;;17.46;100.00
48636;BME280;34429;52.332;5.614;2022-08-19T01:02:50;101335.38;;;17.45;100.00
48636;BME280;34429;52.332;5.614;2022-08-19T01:05:21;101329.94;;;17.45;100.00
48636;BME280;34429;52.332;5.614;2022-08-19T01:07:49;101327.22;;;17.45;100.00
48636;BME280;34429;52.332;5.614;2022-08-19T01:10:19;101334.00;;;17.41;100.00
48636;BME280;34429;52.332;5.614;2022-08-19T01:12:50;101334.34;;;17.38;100.00
48636;BME280;34429;52.332;5.614;2022-08-19T01:15:21;101339.78;;;17.38;100.00
48636;BME280;34429;52.332;5.614;2022-08-19T01:17:50;101338.09;;;17.37;100.00
48636;BME280;34429;52.332;5.614;2022-08-19T01:20:20;101336.41;;;17.36;100.00
48636;BME280;34429;52.332;5.614;2022-08-19T01:22:53;101327.19;;;17.37;100.00
48636;BME280;34429;52.332;5.614;2022-08-19T01:25:22;101331.31;;;17.33;100.00
48636;BME280;34429;52.332;5.614;2022-08-19T01:27:52;101329.94;;;17.29;100.00
48636;BME280;34429;52.332;5.614;2022-08-19T01:30:22;101330.94;;;17.20;100.00
48636;BME280;34429;52.332;5.614;2022-08-19T01:32:50;101335.88;;;17.24;100.00
48636;BME280;34429;52.332;5.614;2022-08-19T01:35:19;101331.94;;;17.27;100.00
48636;BME280;34429;52.332;5.614;2022-08-19T01:37:49;101328.91;;;17.22;100.00
48636;BME280;34429;52.332;5.614;2022-08-19T01:40:22;101335.34;;;17.21;100.00
48636;BME280;34429;52.332;5.614;2022-08-19T01:42:52;101327.03;;;17.22;100.00
48636;BME280;34429;52.332;5.614;2022-08-19T01:45:21;101336.56;;;17.26;100.00
48636;BME280;34429;52.332;5.614;2022-08-19T01:47:50;101325.16;;;17.14;100.00
48636;BME280;34429;52.332;5.614;2022-08-19T01:50:18;101326.84;;;17.07;100.00
48636;BME280;34429;52.332;5.614;2022-08-19T01:52:46;101334.31;;;17.05;100.00
48636;BME280;34429;52.332;5.614;2022-08-19T01:55:15;101329.56;;;17.07;100.00
48636;BME280;34429;52.332;5.614;2022-08-19T01:57:47;101330.44;;;17.08;100.00
48636;BME280;34429;52.332;5.614;2022-08-19T02:00:18;101332.63;;;17.04;100.00
48636;BME280;34429;52.332;5.614;2022-08-19T02:02:46;101334.16;;;17.07;100.00
48636;BME280;34429;52.332;5.614;2022-08-19T02:05:14;101334.66;;;17.02;100.00
48636;BME280;34429;52.332;5.614;2022-08-19T02:07:46;101339.41;;;16.92;100.00
48636;BME280;34429;52.332;5.614;2022-08-19T02:10:17;101339.50;;;16.82;100.00
48636;BME280;34429;52.332;5.614;2022-08-19T02:12:55;101335.97;;;16.90;100.00
48636;BME280;34429;52.332;5.614;2022-08-19T02:15:24;101341.59;;;16.88;100.00
48636;BME280;34429;52.332;5.614;2022-08-19T02:17:52;101347.91;;;17.05;100.00
48636;BME280;34429;52.332;5.614;2022-08-19T02:20:20;101344.66;;;16.93;100.00
48636;BME280;34429;52.332;5.614;2022-08-19T02:22:48;101333.28;;;16.98;100.00
48636;BME280;34429;52.332;5.614;2022-08-19T02:25:17;101335.16;;;16.97;100.00
48636;BME280;34429;52.332;5.614;2022-08-19T02:27:45;101333.78;;;16.93;100.00
48636;BME280;34429;52.332;5.614;2022-08-19T02:30:17;101331.41;;;16.90;100.00
48636;BME280;34429;52.332;5.614;2022-08-19T02:32:45;101334.28;;;16.89;100.00
48636;BME280;34429;52.332;5.614;2022-08-19T02:35:13;101333.56;;;16.87;100.00
48636;BME280;34429;52.332;5.614;2022-08-19T02:37:41;101344.09;;;16.81;100.00
48636;BME280;34429;52.332;5.614;2022-08-19T02:40:31;101348.31;;;16.84;100.00
48636;BME280;34429;52.332;5.614;2022-08-19T02:43:00;101349.00;;;16.78;100.00
48636;BME280;34429;52.332;5.614;2022-08-19T02:45:33;101353.91;;;16.74;100.00
48636;BME280;34429;52.332;5.614;2022-08-19T02:48:02;101358.31;;;16.67;100.00
48636;BME280;34429;52.332;5.614;2022-08-19T02:50:31;101354.88;;;16.65;100.00
48636;BME280;34429;52.332;5.614;2022-08-19T02:52:59;101353.22;;;16.64;100.00
48636;BME280;34429;52.332;5.614;2022-08-19T02:55:27;101348.25;;;16.59;100.00
48636;BME280;34429;52.332;5.614;2022-08-19T02:57:55;101341.28;;;16.57;100.00
48636;BME280;34429;52.332;5.614;2022-08-19T03:00:23;101346.56;;;16.58;100.00
48636;BME280;34429;52.332;5.614;2022-08-19T03:02:54;101346.56;;;16.58;100.00
48636;BME280;34429;52.332;5.614;2022-08-19T03:05:22;101346.38;;;16.60;100.00
48636;BME280;34429;52.332;5.614;2022-08-19T03:07:50;101344.50;;;16.52;100.00
48636;BME280;34429;52.332;5.614;2022-08-19T03:10:18;101351.81;;;16.60;100.00
48636;BME280;34429;52.332;5.614;2022-08-19T03:12:46;101348.59;;;16.56;100.00
48636;BME280;34429;52.332;5.614;2022-08-19T03:15:14;101348.09;;;16.61;100.00
48636;BME280;34429;52.332;5.614;2022-08-19T03:17:42;101344.34;;;16.62;100.00
48636;BME280;34429;52.332;5.614;2022-08-19T03:20:16;101348.78;;;16.63;100.00
48636;BME280;34429;52.332;5.614;2022-08-19T03:22:44;101349.78;;;16.62;100.00
48636;BME280;34429;52.332;5.614;2022-08-19T03:25:12;101348.97;;;16.70;100.00
48636;BME280;34429;52.332;5.614;2022-08-19T03:27:40;101338.13;;;16.70;100.00
48636;BME280;34429;52.332;5.614;2022-08-19T03:30:09;101342.16;;;16.66;100.00
48636;BME280;34429;52.332;5.614;2022-08-19T03:32:37;101343.00;;;16.58;100.00
48636;BME280;34429;52.332;5.614;2022-08-19T03:35:06;101342.63;;;16.53;100.00
48636;BME280;34429;52.332;5.614;2022-08-19T03:37:36;101352.47;;;16.54;100.00
48636;BME280;34429;52.332;5.614;2022-08-19T03:40:05;101343.28;;;16.55;100.00
48636;BME280;34429;52.332;5.614;2022-08-19T03:42:33;101343.13;;;16.48;100.00
48636;BME280;34429;52.332;5.614;2022-08-19T03:45:01;101347.88;;;16.46;100.00
48636;BME280;34429;52.332;5.614;2022-08-19T03:47:29;101339.50;;;16.39;100.00
48636;BME280;34429;52.332;5.614;2022-08-19T03:49:57;101339.00;;;16.36;100.00
48636;BME280;34429;52.332;5.614;2022-08-19T03:52:25;101349.00;;;16.35;100.00
48636;BME280;34429;52.332;5.614;2022-08-19T03:54:56;101350.03;;;16.42;100.00
48636;BME280;34429;52.332;5.614;2022-08-19T03:57:24;101357.53;;;16.49;100.00
48636;BME280;34429;52.332;5.614;2022-08-19T03:59:52;101352.97;;;16.49;100.00
48636;BME280;34429;52.332;5.614;2022-08-19T04:02:20;101345.91;;;16.30;100.00
48636;BME280;34429;52.332;5.614;2022-08-19T04:04:48;101355.56;;;16.24;100.00
48636;BME280;34429;52.332;5.614;2022-08-19T04:07:16;101359.78;;;16.19;100.00
48636;BME280;34429;52.332;5.614;2022-08-19T04:09:46;101349.56;;;16.13;100.00
48636;BME280;34429;52.332;5.614;2022-08-19T04:12:18;101356.38;;;16.17;100.00
48636;BME280;34429;52.332;5.614;2022-08-19T04:14:46;101351.34;;;16.30;100.00
48636;BME280;34429;52.332;5.614;2022-08-19T04:17:14;101344.69;;;16.24;100.00
48636;BME280;34429;52.332;5.614;2022-08-19T04:19:42;101334.31;;;16.20;100.00
48636;BME280;34429;52.332;5.614;2022-08-19T04:22:10;101340.59;;;16.20;100.00
48636;BME280;34429;52.332;5.614;2022-08-19T04:24:38;101334.00;;;16.23;100.00
48636;BME280;34429;52.332;5.614;2022-08-19T04:27:07;101327.50;;;16.16;100.00
48636;BME280;34429;52.332;5.614;2022-08-19T04:29:37;101334.44;;;16.10;100.00
48636;BME280;34429;52.332;5.614;2022-08-19T04:32:06;101329.84;;;16.10;100.00
48636;BME280;34429;52.332;5.614;2022-08-19T04:34:34;101330.28;;;16.24;100.00
48636;BME280;34429;52.332;5.614;2022-08-19T04:37:04;101330.28;;;16.24;100.00
48636;BME280;34429;52.332;5.614;2022-08-19T04:39:38;101323.81;;;16.25;100.00
48636;BME280;34429;52.332;5.614;2022-08-19T04:42:19;101332.34;;;16.30;100.00
48636;BME280;34429;52.332;5.614;2022-08-19T04:45:02;101327.25;;;16.35;100.00
48636;BME280;34429;52.332;5.614;2022-08-19T04:47:30;101323.00;;;16.33;100.00
48636;BME280;34429;52.332;5.614;2022-08-19T04:49:58;101316.38;;;16.35;100.00
48636;BME280;34429;52.332;5.614;2022-08-19T04:52:26;101320.66;;;16.38;100.00
48636;BME280;34429;52.332;5.614;2022-08-19T04:54:56;101317.78;;;16.39;100.00
48636;BME280;34429;52.332;5.614;2022-08-19T04:57:24;101321.16;;;16.41;100.00
48636;BME280;34429;52.332;5.614;2022-08-19T04:59:53;101322.53;;;16.45;100.00
48636;BME280;34429;52.332;5.614;2022-08-19T05:02:24;101323.59;;;16.53;100.00
48636;BME280;34429;52.332;5.614;2022-08-19T05:04:56;101314.94;;;16.57;100.00
48636;BME280;34429;52.332;5.614;2022-08-19T05:07:25;101317.50;;;16.59;100.00
48636;BME280;34429;52.332;5.614;2022-08-19T05:09:54;101326.88;;;16.64;100.00
48636;BME280;34429;52.332;5.614;2022-08-19T05:12:22;101323.66;;;16.69;100.00
48636;BME280;34429;52.332;5.614;2022-08-19T05:14:50;101326.03;;;16.72;100.00
48636;BME280;34429;52.332;5.614;2022-08-19T05:17:19;101333.47;;;16.62;100.00
48636;BME280;34429;52.332;5.614;2022-08-19T05:19:49;101334.50;;;16.61;100.00
48636;BME280;34429;52.332;5.614;2022-08-19T05:22:30;101335.84;;;16.65;100.00
48636;BME280;34429;52.332;5.614;2022-08-19T05:25:02;101337.75;;;16.64;100.00
48636;BME280;34429;52.332;5.614;2022-08-19T05:27:30;101343.88;;;16.75;100.00
48636;BME280;34429;52.332;5.614;2022-08-19T05:29:58;101330.50;;;16.81;100.00
48636;BME280;34429;52.332;5.614;2022-08-19T05:32:27;101330.53;;;16.90;100.00
48636;BME280;34429;52.332;5.614;2022-08-19T05:34:58;101335.97;;;16.90;100.00
48636;BME280;34429;52.332;5.614;2022-08-19T05:37:26;101328.84;;;16.97;100.00
48636;BME280;34429;52.332;5.614;2022-08-19T05:39:54;101331.56;;;16.97;100.00
48636;BME280;34429;52.332;5.614;2022-08-19T05:42:25;101325.63;;;16.93;100.00
48636;BME280;34429;52.332;5.614;2022-08-19T05:44:53;101335.00;;;17.07;100.00
48636;BME280;34429;52.332;5.614;2022-08-19T05:47:21;101338.41;;;17.17;100.00
48636;BME280;34429;52.332;5.614;2022-08-19T05:49:49;101349.13;;;17.19;100.00
48636;BME280;34429;52.332;5.614;2022-08-19T05:52:20;101349.47;;;17.24;100.00
48636;BME280;34429;52.332;5.614;2022-08-19T05:54:48;101353.06;;;17.33;100.00
48636;BME280;34429;52.332;5.614;2022-08-19T05:57:16;101357.16;;;17.45;100.00
48636;BME280;34429;52.332;5.614;2022-08-19T05:59:44;101351.72;;;17.54;100.00
48636;BME280;34429;52.332;5.614;2022-08-19T06:02:13;101342.53;;;17.46;100.00
48636;BME280;34429;52.332;5.614;2022-08-19T06:04:41;101346.28;;;17.54;100.00
48636;BME280;34429;52.332;5.614;2022-08-19T06:07:10;101343.91;;;17.50;100.00
48636;BME280;34429;52.332;5.614;2022-08-19T06:09:40;101347.28;;;17.44;100.00
48636;BME280;34429;52.332;5.614;2022-08-19T06:12:09;101345.06;;;17.48;100.00
48636;BME280;34429;52.332;5.614;2022-08-19T06:14:37;101349.31;;;17.59;100.00
48636;BME280;34429;52.332;5.614;2022-08-19T06:17:06;101360.53;;;17.89;100.00
48636;BME280;34429;52.332;5.614;2022-08-19T06:19:34;101353.41;;;17.96;100.00
48636;BME280;34429;52.332;5.614;2022-08-19T06:22:06;101361.22;;;18.15;100.00
48636;BME280;34429;52.332;5.614;2022-08-19T06:24:34;101363.91;;;18.24;100.00
48636;BME280;34429;52.332;5.614;2022-08-19T06:27:05;101357.94;;;18.28;100.00
48636;BME280;34429;52.332;5.614;2022-08-19T06:29:33;101365.44;;;18.26;100.00
48636;BME280;34429;52.332;5.614;2022-08-19T06:32:02;101361.53;;;18.29;100.00
48636;BME280;34429;52.332;5.614;2022-08-19T06:34:32;101358.38;;;18.48;100.00
48636;BME280;34429;52.332;5.614;2022-08-19T06:37:01;101355.94;;;18.62;100.00
48636;BME280;34429;52.332;5.614;2022-08-19T06:39:31;101357.22;;;18.74;100.00
48636;BME280;34429;52.332;5.614;2022-08-19T06:42:01;101349.94;;;18.66;100.00
48636;BME280;34429;52.332;5.614;2022-08-19T06:44:34;101350.03;;;18.89;100.00
48636;BME280;34429;52.332;5.614;2022-08-19T06:47:04;101350.63;;;19.08;100.00
48636;BME280;34429;52.332;5.614;2022-08-19T06:49:32;101347.91;;;19.08;100.00
48636;BME280;34429;52.332;5.614;2022-08-19T06:52:01;101340.75;;;19.30;100.00
48636;BME280;34429;52.332;5.614;2022-08-19T06:54:29;101342.44;;;19.31;100.00
48636;BME280;34429;52.332;5.614;2022-08-19T06:56:59;101344.31;;;19.31;100.00
48636;BME280;34429;52.332;5.614;2022-08-19T06:59:28;101345.22;;;19.46;100.00
48636;BME280;34429;52.332;5.614;2022-08-19T07:02:01;101336.13;;;19.54;100.00
48636;BME280;34429;52.332;5.614;2022-08-19T07:04:31;101332.50;;;19.76;100.00
48636;BME280;34429;52.332;5.614;2022-08-19T07:06:59;101340.88;;;19.75;100.00
48636;BME280;34429;52.332;5.614;2022-08-19T07:09:28;101337.13;;;19.76;100.00
48636;BME280;34429;52.332;5.614;2022-08-19T07:11:56;101339.22;;;19.89;100.00
48636;BME280;34429;52.332;5.614;2022-08-19T07:14:25;101339.28;;;20.04;100.00
48636;BME280;34429;52.332;5.614;2022-08-19T07:16:54;101338.59;;;20.17;100.00
48636;BME280;34429;52.332;5.614;2022-08-19T07:19:25;101341.69;;;20.43;100.00
48636;BME280;34429;52.332;5.614;2022-08-19T07:21:54;101341.50;;;20.45;100.00
48636;BME280;34429;52.332;5.614;2022-08-19T07:24:25;101338.97;;;20.43;100.00
48636;BME280;34429;52.332;5.614;2022-08-19T07:26:54;101342.81;;;20.64;100.00
48636;BME280;34429;52.332;5.614;2022-08-19T07:29:25;101340.59;;;20.68;100.00
48636;BME280;34429;52.332;5.614;2022-08-19T07:31:54;101341.25;;;20.40;100.00
48636;BME280;34429;52.332;5.614;2022-08-19T07:34:26;101345.53;;;20.64;100.00
48636;BME280;34429;52.332;5.614;2022-08-19T07:36:55;101345.69;;;20.71;100.00
48636;BME280;34429;52.332;5.614;2022-08-19T07:39:25;101342.75;;;20.72;100.00
48636;BME280;34429;52.332;5.614;2022-08-19T07:41:54;101351.41;;;20.91;100.00
48636;BME280;34429;52.332;5.614;2022-08-19T07:44:22;101347.00;;;21.11;100.00
48636;BME280;34429;52.332;5.614;2022-08-19T07:46:52;101341.91;;;21.30;100.00
48636;BME280;34429;52.332;5.614;2022-08-19T07:49:21;101341.44;;;21.05;100.00
48636;BME280;34429;52.332;5.614;2022-08-19T07:51:52;101356.19;;;20.89;100.00
48636;BME280;34429;52.332;5.614;2022-08-19T07:54:22;101358.22;;;20.50;100.00
48636;BME280;34429;52.332;5.614;2022-08-19T07:56:52;101359.03;;;20.51;100.00
48636;BME280;34429;52.332;5.614;2022-08-19T07:59:20;101368.88;;;20.75;100.00
48636;BME280;34429;52.332;5.614;2022-08-19T08:01:49;101376.84;;;20.91;100.00
48636;BME280;34429;52.332;5.614;2022-08-19T08:04:17;101369.09;;;21.10;100.00
48636;BME280;34429;52.332;5.614;2022-08-19T08:07:07;101370.84;;;20.81;100.00
48636;BME280;34429;52.332;5.614;2022-08-19T08:09:48;101373.19;;;20.84;100.00
48636;BME280;34429;52.332;5.614;2022-08-19T08:12:18;101380.47;;;20.77;100.00
48636;BME280;34429;52.332;5.614;2022-08-19T08:14:47;101382.00;;;21.16;100.00
48636;BME280;34429;52.332;5.614;2022-08-19T08:17:17;101373.41;;;21.62;100.00
48636;BME280;34429;52.332;5.614;2022-08-19T08:19:46;101379.91;;;21.83;100.00
48636;BME280;34429;52.332;5.614;2022-08-19T08:22:22;101378.81;;;21.77;100.00
48636;BME280;34429;52.332;5.614;2022-08-19T08:25:03;101384.22;;;21.49;100.00
48636;BME280;34429;52.332;5.614;2022-08-19T08:27:33;101389.53;;;21.50;100.00
48636;BME280;34429;52.332;5.614;2022-08-19T08:30:05;101391.63;;;21.12;100.00
48636;BME280;34429;52.332;5.614;2022-08-19T08:32:34;101403.38;;;21.27;100.00
48636;BME280;34429;52.332;5.614;2022-08-19T08:35:03;101402.00;;;21.53;100.00
48636;BME280;34429;52.332;5.614;2022-08-19T08:37:33;101405.25;;;21.63;100.00
48636;BME280;34429;52.332;5.614;2022-08-19T08:40:02;101409.41;;;21.81;100.00
48636;BME280;34429;52.332;5.614;2022-08-19T08:42:32;101412.47;;;21.71;100.00
48636;BME280;34429;52.332;5.614;2022-08-19T08:45:02;101407.09;;;21.56;100.00
48636;BME280;34429;52.332;5.614;2022-08-19T08:47:32;101414.44;;;21.19;100.00
48636;BME280;34429;52.332;5.614;2022-08-19T08:50:04;101421.88;;;21.25;100.00
48636;BME280;34429;52.332;5.614;2022-08-19T08:52:37;101423.31;;;21.21;100.00
48636;BME280;34429;52.332;5.614;2022-08-19T08:55:09;101416.03;;;21.28;100.00
48636;BME280;34429;52.332;5.614;2022-08-19T08:57:38;101420.53;;;21.51;100.00
48636;BME280;34429;52.332;5.614;2022-08-19T09:00:09;101416.47;;;21.68;100.00
48636;BME280;34429;52.332;5.614;2022-08-19T09:02:38;101420.78;;;21.78;100.00
48636;BME280;34429;52.332;5.614;2022-08-19T09:05:06;101418.00;;;21.99;100.00
48636;BME280;34429;52.332;5.614;2022-08-19T09:07:42;101423.50;;;21.56;100.00
48636;BME280;34429;52.332;5.614;2022-08-19T09:10:15;101423.31;;;21.79;100.00
48636;BME280;34429;52.332;5.614;2022-08-19T09:12:47;101416.53;;;22.25;100.00
48636;BME280;34429;52.332;5.614;2022-08-19T09:15:21;101410.34;;;21.88;100.00
48636;BME280;34429;52.332;5.614;2022-08-19T09:17:52;101412.13;;;22.02;100.00
48636;BME280;34429;52.332;5.614;2022-08-19T09:20:21;101416.91;;;22.22;100.00
48636;BME280;34429;52.332;5.614;2022-08-19T09:22:52;101414.88;;;22.31;100.00
48636;BME280;34429;52.332;5.614;2022-08-19T09:25:20;101419.97;;;21.84;100.00
48636;BME280;34429;52.332;5.614;2022-08-19T09:27:50;101418.75;;;21.86;100.00
48636;BME280;34429;52.332;5.614;2022-08-19T09:30:19;101415.69;;;21.75;100.00
48636;BME280;34429;52.332;5.614;2022-08-19T09:32:48;101417.88;;;21.86;100.00
48636;BME280;34429;52.332;5.614;2022-08-19T09:35:17;101413.16;;;21.73;100.00
48636;BME280;34429;52.332;5.614;2022-08-19T09:37:47;101422.31;;;22.09;100.00
48636;BME280;34429;52.332;5.614;2022-08-19T09:40:18;101422.69;;;22.62;100.00
48636;BME280;34429;52.332;5.614;2022-08-19T09:42:46;101405.53;;;22.95;100.00
48636;BME280;34429;52.332;5.614;2022-08-19T09:45:15;101410.63;;;23.05;100.00
48636;BME280;34429;52.332;5.614;2022-08-19T09:47:45;101409.38;;;22.59;100.00
48636;BME280;34429;52.332;5.614;2022-08-19T09:50:13;101404.53;;;23.03;100.00
48636;BME280;34429;52.332;5.614;2022-08-19T09:52:43;101408.44;;;23.35;100.00
48636;BME280;34429;52.332;5.614;2022-08-19T09:55:11;101418.94;;;23.12;100.00
48636;BME280;34429;52.332;5.614;2022-08-19T09:57:43;101406.97;;;23.39;100.00
48636;BME280;34429;52.332;5.614;2022-08-19T10:00:12;101414.00;;;23.07;100.00
48636;BME280;34429;52.332;5.614;2022-08-19T10:02:40;101414.41;;;22.97;100.00
48636;BME280;34429;52.332;5.614;2022-08-19T10:05:08;101423.69;;;22.96;100.00
48636;BME280;34429;52.332;5.614;2022-08-19T10:07:48;101409.56;;;22.99;100.00
48636;BME280;34429;52.332;5.614;2022-08-19T10:10:16;101409.31;;;23.62;100.00
48636;BME280;34429;52.332;5.614;2022-08-19T10:12:47;101403.84;;;23.76;100.00
48636;BME280;34429;52.332;5.614;2022-08-19T10:15:15;101402.34;;;23.60;100.00
48636;BME280;34429;52.332;5.614;2022-08-19T10:17:46;101415.84;;;23.41;100.00
48636;BME280;34429;52.332;5.614;2022-08-19T10:20:14;101403.84;;;23.56;100.00
48636;BME280;34429;52.332;5.614;2022-08-19T10:22:42;101398.97;;;23.51;100.00
48636;BME280;34429;52.332;5.614;2022-08-19T10:25:10;101399.81;;;23.52;100.00
48636;BME280;34429;52.332;5.614;2022-08-19T10:27:41;101405.13;;;23.73;100.00
48636;BME280;34429;52.332;5.614;2022-08-19T10:30:12;101402.38;;;23.73;100.00
48636;BME280;34429;52.332;5.614;2022-08-19T10:32:41;101400.22;;;23.35;100.00
48636;BME280;34429;52.332;5.614;2022-08-19T10:35:11;101395.19;;;23.92;100.00
48636;BME280;34429;52.332;5.614;2022-08-19T10:37:39;101401.94;;;24.30;100.00
48636;BME280;34429;52.332;5.614;2022-08-19T10:40:08;101401.97;;;24.03;100.00
48636;BME280;34429;52.332;5.614;2022-08-19T10:42:37;101393.25;;;24.40;100.00
48636;BME280;34429;52.332;5.614;2022-08-19T10:45:05;101383.75;;;24.29;100.00
48636;BME280;34429;52.332;5.614;2022-08-19T10:47:37;101383.13;;;24.27;100.00
48636;BME280;34429;52.332;5.614;2022-08-19T10:50:06;101383.75;;;24.16;100.00
48636;BME280;34429;52.332;5.614;2022-08-19T10:52:47;101380.91;;;24.56;100.00
48636;BME280;34429;52.332;5.614;2022-08-19T10:55:16;101375.81;;;24.79;100.00
48636;BME280;34429;52.332;5.614;2022-08-19T10:57:57;101367.78;;;25.10;100.00
48636;BME280;34429;52.332;5.614;2022-08-19T11:00:25;101362.25;;;25.16;100.00
48636;BME280;34429;52.332;5.614;2022-08-19T11:02:56;101362.38;;;25.35;100.00
48636;BME280;34429;52.332;5.614;2022-08-19T11:05:24;101364.22;;;24.57;100.00
48636;BME280;34429;52.332;5.614;2022-08-19T11:07:52;101366.50;;;24.74;100.00
48636;BME280;34429;52.332;5.614;2022-08-19T11:10:20;101359.69;;;24.76;100.00
48636;BME280;34429;52.332;5.614;2022-08-19T11:12:49;101362.97;;;25.05;100.00
48636;BME280;34429;52.332;5.614;2022-08-19T11:15:18;101360.41;;;25.42;100.00
48636;BME280;34429;52.332;5.614;2022-08-19T11:17:46;101362.13;;;25.05;100.00
48636;BME280;34429;52.332;5.614;2022-08-19T11:20:17;101360.13;;;25.18;100.00
48636;BME280;34429;52.332;5.614;2022-08-19T11:22:45;101358.09;;;25.71;100.00
48636;BME280;34429;52.332;5.614;2022-08-19T11:25:13;101354.66;;;25.76;100.00
48636;BME280;34429;52.332;5.614;2022-08-19T11:27:41;101349.50;;;25.79;100.00
48636;BME280;34429;52.332;5.614;2022-08-19T11:30:12;101354.25;;;25.97;100.00
48636;BME280;34429;52.332;5.614;2022-08-19T11:32:41;101356.69;;;26.31;100.00
48636;BME280;34429;52.332;5.614;2022-08-19T11:35:09;101353.28;;;26.10;100.00
48636;BME280;34429;52.332;5.614;2022-08-19T11:37:39;101357.22;;;26.58;100.00
48636;BME280;34429;52.332;5.614;2022-08-19T11:40:08;101351.09;;;26.74;100.00
48636;BME280;34429;52.332;5.614;2022-08-19T11:42:36;101345.78;;;26.91;100.00
48636;BME280;34429;52.332;5.614;2022-08-19T11:45:17;101348.16;;;26.14;100.00
48636;BME280;34429;52.332;5.614;2022-08-19T11:47:45;101345.47;;;26.07;100.00
48636;BME280;34429;52.332;5.614;2022-08-19T11:50:14;101346.09;;;26.83;100.00
48636;BME280;34429;52.332;5.614;2022-08-19T11:52:45;101344.16;;;26.84;100.00
48636;BME280;34429;52.332;5.614;2022-08-19T11:55:14;101350.44;;;26.91;100.00
48636;BME280;34429;52.332;5.614;2022-08-19T11:57:44;101347.16;;;27.01;100.00
48636;BME280;34429;52.332;5.614;2022-08-19T12:00:12;101334.53;;;27.35;100.00
48636;BME280;34429;52.332;5.614;2022-08-19T12:02:41;101339.53;;;27.26;100.00
48636;BME280;34429;52.332;5.614;2022-08-19T12:05:09;101342.75;;;27.23;100.00
48636;BME280;34429;52.332;5.614;2022-08-19T12:07:37;101333.25;;;27.61;100.00
48636;BME280;34429;52.332;5.614;2022-08-19T12:10:08;101339.03;;;27.72;100.00
48636;BME280;34429;52.332;5.614;2022-08-19T12:12:37;101334.81;;;27.57;100.00
48636;BME280;34429;52.332;5.614;2022-08-19T12:15:08;101335.91;;;27.44;100.00
48636;BME280;34429;52.332;5.614;2022-08-19T12:17:37;101347.75;;;28.11;100.00
48636;BME280;34429;52.332;5.614;2022-08-19T12:20:05;101346.03;;;27.74;100.00
48636;BME280;34429;52.332;5.614;2022-08-19T12:22:34;101342.19;;;27.64;100.00
48636;BME280;34429;52.332;5.614;2022-08-19T12:25:03;101325.34;;;27.53;100.00
48636;BME280;34429;52.332;5.614;2022-08-19T12:27:33;101330.25;;;27.51;100.00
48636;BME280;34429;52.332;5.614;2022-08-19T12:30:02;101343.41;;;26.39;100.00
48636;BME280;34429;52.332;5.614;2022-08-19T12:32:30;101340.97;;;25.87;100.00
48636;BME280;34429;52.332;5.614;2022-08-19T12:34:58;101343.06;;;25.42;100.00
48636;BME280;34429;52.332;5.614;2022-08-19T12:37:26;101366.97;;;25.09;100.00
48636;BME280;34429;52.332;5.614;2022-08-19T12:39:57;101363.91;;;24.86;100.00
48636;BME280;34429;52.332;5.614;2022-08-19T12:42:26;101360.50;;;24.25;100.00
48636;BME280;34429;52.332;5.614;2022-08-19T12:44:57;101356.06;;;24.10;100.00
48636;BME280;34429;52.332;5.614;2022-08-19T12:47:25;101354.78;;;24.20;100.00
48636;BME280;34429;52.332;5.614;2022-08-19T12:49:53;101363.22;;;24.31;100.00
48636;BME280;34429;52.332;5.614;2022-08-19T12:52:23;101364.94;;;24.19;100.00